Time;durP1;ratioP1;P1;durP2;ratioP2;P2;SDS_P1;SDS_P2;PMS_P1;PMS_P2;Temp;Humidity;BMP_temperature;BMP_pressure;BME280_temperature;BME280_humidity;BME280_pressure;Samples;Min_cycle;Max_cycle;Signal;HPM_P1;HPM_P2
2022/10/07 00:01:45;;;;;;;13.80;10.50;;;;;;;12.63;93.04;98139.69;105523;1303;22492;-83
2022/10/07 00:04:16;;;;;;;13.00;10.60;;;;;;;12.55;93.45;98143.29;105547;1295;23722;-83
2022/10/07 00:06:47;;;;;;;13.10;10.20;;;;;;;12.50;93.73;98139.13;105540;1303;22771;-83
2022/10/07 00:09:18;;;;;;;13.60;10.60;;;;;;;12.51;94.06;98141.63;105465;1288;24293;-83
2022/10/07 00:11:50;;;;;;;14.00;10.60;;;;;;;12.53;94.23;98141.83;105539;1288;22483;-83
2022/10/07 00:14:21;;;;;;;13.10;10.40;;;;;;;12.54;94.40;98141.15;105520;1303;22473;-84
2022/10/07 00:16:52;;;;;;;12.20;9.70;;;;;;;12.56;94.46;98138.30;105527;1291;22604;-84
2022/10/07 00:19:23;;;;;;;11.50;9.70;;;;;;;12.58;94.54;98143.25;105447;1290;22470;-84
2022/10/07 00:21:54;;;;;;;15.80;10.50;;;;;;;12.59;94.71;98139.60;105531;1296;25408;-83
2022/10/07 00:24:25;;;;;;;12.90;9.90;;;;;;;12.61;94.73;98137.80;105500;1288;22468;-83
2022/10/07 00:26:56;;;;;;;13.80;10.30;;;;;;;12.63;94.85;98140.52;105493;1303;22673;-84
2022/10/07 00:29:28;;;;;;;12.10;9.90;;;;;;;12.63;94.89;98134.09;105484;1303;26859;-83
2022/10/07 00:31:58;;;;;;;12.90;10.20;;;;;;;12.66;94.93;98131.14;105528;1282;22481;-83
2022/10/07 00:34:29;;;;;;;12.90;10.00;;;;;;;12.71;95.03;98131.71;105533;1289;22493;-83
2022/10/07 00:37:01;;;;;;;10.80;7.90;;;;;;;12.65;94.81;98133.05;105508;1303;24376;-83
2022/10/07 00:39:35;;;;;;;10.80;7.90;;;;;;;12.52;94.80;98129.85;105415;1303;23373;-84
2022/10/07 00:42:06;;;;;;;11.70;8.60;;;;;;;12.43;94.93;98131.31;105392;1305;22430;-84
2022/10/07 00:44:47;;;;;;;12.20;8.20;;;;;;;12.42;95.27;98129.30;105452;1290;23402;-84
2022/10/07 00:47:28;;;;;;;12.80;8.60;;;;;;;12.47;95.42;98126.92;105441;1291;22520;-84
2022/10/07 00:50:05;;;;;;;12.40;8.50;;;;;;;12.50;95.52;98127.27;105366;1304;23051;-83
2022/10/07 00:52:40;;;;;;;10.60;8.10;;;;;;;12.53;95.49;98120.39;105406;1306;22519;-83
2022/10/07 00:55:17;;;;;;;9.30;7.70;;;;;;;12.53;95.41;98115.60;105454;1281;22494;-84
2022/10/07 00:57:49;;;;;;;11.20;8.30;;;;;;;12.54;95.36;98108.70;105427;1303;25472;-84
2022/10/07 01:00:22;;;;;;;15.00;8.50;;;;;;;12.56;95.37;98107.01;105459;1284;23756;-83
2022/10/07 01:02:53;;;;;;;10.40;8.50;;;;;;;12.55;95.35;98103.81;105533;1288;22609;-83
2022/10/07 01:05:24;;;;;;;12.90;8.30;;;;;;;12.52;95.39;98101.74;105511;1296;24267;-84
2022/10/07 01:07:56;;;;;;;11.10;8.60;;;;;;;12.50;95.50;98098.16;105505;1281;24253;-83
2022/10/07 01:10:33;;;;;;;10.30;7.30;;;;;;;12.48;95.46;98095.44;105468;1300;25400;-83
2022/10/07 01:13:17;;;;;;;10.70;8.30;;;;;;;12.42;95.02;98091.26;105475;1287;22738;-83
2022/10/07 01:15:58;;;;;;;10.60;7.40;;;;;;;12.22;94.62;98092.14;105556;1290;22530;-83
2022/10/07 01:18:37;;;;;;;12.80;8.70;;;;;;;12.04;94.98;98093.98;105500;1303;22737;-83
2022/10/07 01:21:14;;;;;;;12.20;10.00;;;;;;;11.97;95.61;98089.94;105545;1291;24904;-83
2022/10/07 01:24:08;;;;;;;14.50;10.50;;;;;;;11.97;96.09;98090.26;105538;1291;22494;-83
2022/10/07 01:26:51;;;;;;;15.20;11.10;;;;;;;11.94;96.53;98087.27;105572;1289;22504;-83
2022/10/07 01:29:29;;;;;;;16.40;11.50;;;;;;;11.93;96.93;98086.05;105429;1294;22522;-83
2022/10/07 01:32:06;;;;;;;14.10;11.10;;;;;;;11.99;97.13;98086.71;105385;1282;22491;-83
2022/10/07 01:34:39;;;;;;;12.90;10.60;;;;;;;12.03;97.22;98083.72;105413;1282;22436;-83
2022/10/07 01:37:15;;;;;;;13.00;10.10;;;;;;;12.06;97.07;98081.72;105431;1304;25414;-83
2022/10/07 01:39:51;;;;;;;11.60;9.60;;;;;;;12.03;96.75;98079.67;105384;1291;22494;-84
2022/10/07 01:42:25;;;;;;;11.60;9.70;;;;;;;11.99;96.34;98077.73;105421;1298;23948;-83
2022/10/07 01:44:57;;;;;;;11.30;9.50;;;;;;;11.97;96.12;98077.02;105336;1306;22487;-83
2022/10/07 01:47:29;;;;;;;11.30;9.20;;;;;;;11.94;96.16;98075.27;105394;1306;22545;-83
2022/10/07 01:50:00;;;;;;;12.40;9.80;;;;;;;11.89;95.84;98076.02;105467;1283;23784;-83
2022/10/07 01:52:47;;;;;;;13.00;9.70;;;;;;;11.76;95.59;98068.66;105531;1303;22489;-83
2022/10/07 01:55:32;;;;;;;12.10;9.90;;;;;;;11.56;95.88;98065.11;105499;1303;22505;-83
2022/10/07 01:58:19;;;;;;;14.60;10.20;;;;;;;11.41;96.42;98068.02;105500;1303;22489;-83
2022/10/07 02:00:59;;;;;;;15.60;9.50;;;;;;;11.29;96.69;98062.84;105536;1295;32749;-83
2022/10/07 02:03:54;;;;;;;14.50;9.90;;;;;;;11.18;96.92;98056.65;105521;1288;22491;-83
2022/10/07 02:06:33;;;;;;;13.80;9.80;;;;;;;11.09;97.20;98058.90;105539;1290;22469;-83
2022/10/07 02:09:09;;;;;;;13.20;11.10;;;;;;;11.02;97.56;98051.61;105442;1303;23218;-83
2022/10/07 02:11:44;;;;;;;14.20;10.50;;;;;;;11.03;97.96;98054.74;105469;1298;24145;-83
2022/10/07 02:14:19;;;;;;;12.00;10.50;;;;;;;11.02;98.06;98054.20;105468;1297;22457;-83
2022/10/07 02:16:56;;;;;;;14.60;10.50;;;;;;;11.04;98.10;98053.16;105399;1290;22778;-83
2022/10/07 02:19:32;;;;;;;14.80;10.20;;;;;;;11.08;98.12;98052.36;105435;1300;22455;-83
2022/10/07 02:22:03;;;;;;;15.20;8.90;;;;;;;11.09;97.88;98045.58;105533;1292;25074;-83
2022/10/07 02:24:39;;;;;;;14.30;10.80;;;;;;;11.09;97.64;98043.14;105552;1287;22547;-83
2022/10/07 02:27:14;;;;;;;14.90;10.10;;;;;;;11.09;97.65;98042.39;105513;1288;22487;-83
2022/10/07 02:29:48;;;;;;;14.50;9.90;;;;;;;11.10;97.43;98040.40;105535;1302;24256;-83
2022/10/07 02:32:22;;;;;;;12.60;9.50;;;;;;;11.08;97.10;98042.86;105436;1303;151263;-83
2022/10/07 02:34:58;;;;;;;12.00;10.00;;;;;;;11.00;96.64;98041.86;105520;1298;22472;-83
2022/10/07 02:37:36;;;;;;;13.10;10.30;;;;;;;10.74;96.12;98044.21;105521;1303;22847;-83
2022/10/07 02:40:09;;;;;;;12.40;9.20;;;;;;;10.52;96.30;98046.96;105484;1303;25239;-83
2022/10/07 02:42:46;;;;;;;11.30;8.80;;;;;;;10.39;96.70;98041.35;105536;1297;22411;-83
2022/10/07 02:45:23;;;;;;;12.70;9.20;;;;;;;10.36;97.14;98040.14;105521;1278;24481;-83
2022/10/07 02:47:59;;;;;;;14.20;10.00;;;;;;;10.37;97.13;98037.72;105451;1288;22528;-83
2022/10/07 02:50:38;;;;;;;14.20;10.00;;;;;;;10.31;97.23;98033.43;105460;1303;22512;-83
2022/10/07 02:53:12;;;;;;;13.10;10.60;;;;;;;10.30;97.66;98037.42;105477;1303;22556;-83
2022/10/07 02:55:47;;;;;;;12.60;10.20;;;;;;;10.33;97.46;98030.02;105497;1282;23769;-84
2022/10/07 02:58:19;;;;;;;12.10;10.40;;;;;;;10.29;97.36;98030.02;105512;1288;22629;-83
2022/10/07 03:00:53;;;;;;;14.50;10.90;;;;;;;10.25;97.59;98029.21;105480;1282;35245;-83
2022/10/07 03:03:24;;;;;;;12.60;9.90;;;;;;;10.16;97.81;98032.00;105499;1303;22519;-83
2022/10/07 03:05:56;;;;;;;13.90;11.00;;;;;;;10.06;97.87;98029.23;105550;1295;22440;-83
2022/10/07 03:08:27;;;;;;;16.10;12.70;;;;;;;9.99;98.34;98025.55;105461;1303;22662;-82
2022/10/07 03:10:58;;;;;;;15.60;12.10;;;;;;;9.99;98.77;98022.13;105522;1288;22492;-83
2022/10/07 03:13:30;;;;;;;15.40;12.00;;;;;;;10.02;99.08;98020.44;105526;1296;22474;-83
2022/10/07 03:16:04;;;;;;;14.50;13.00;;;;;;;10.06;99.36;98020.34;105481;1303;22433;-83
2022/10/07 03:18:35;;;;;;;15.20;11.20;;;;;;;10.12;99.71;98021.53;105504;1302;22533;-83
2022/10/07 03:21:07;;;;;;;15.90;10.30;;;;;;;10.08;99.19;98020.64;105418;1305;22419;-83
2022/10/07 03:23:38;;;;;;;15.70;11.90;;;;;;;10.01;98.66;98018.79;105393;1277;22506;-83
2022/10/07 03:26:09;;;;;;;17.50;11.20;;;;;;;10.01;98.81;98019.32;105429;1303;24250;-82
2022/10/07 03:28:41;;;;;;;12.00;10.30;;;;;;;10.04;98.79;98016.23;105327;1306;26138;-82
2022/10/07 03:31:14;;;;;;;14.80;10.70;;;;;;;10.02;98.21;98017.83;105452;1297;22499;-82
2022/10/07 03:33:45;;;;;;;13.30;9.60;;;;;;;9.94;97.73;98019.19;105410;1288;22483;-82
2022/10/07 03:36:16;;;;;;;12.90;10.00;;;;;;;9.72;97.40;98018.63;105451;1282;22488;-82
2022/10/07 03:38:47;;;;;;;16.10;11.30;;;;;;;9.60;97.93;98017.84;105306;1297;22859;-82
2022/10/07 03:41:19;;;;;;;12.80;10.90;;;;;;;9.64;98.78;98014.37;105502;1282;22470;-82
2022/10/07 03:43:50;;;;;;;12.20;9.70;;;;;;;9.67;99.04;98014.73;105532;1303;22438;-82
2022/10/07 03:46:22;;;;;;;12.60;9.30;;;;;;;9.65;98.61;98010.40;105542;1275;23230;-82
2022/10/07 03:48:53;;;;;;;11.60;9.00;;;;;;;9.60;98.37;98012.27;105447;1297;23186;-82
2022/10/07 03:51:24;;;;;;;13.40;9.60;;;;;;;9.55;98.03;98008.58;105474;1288;22572;-82
2022/10/07 03:53:56;;;;;;;9.40;8.10;;;;;;;9.52;98.31;98009.69;105491;1298;22544;-82
2022/10/07 03:56:27;;;;;;;10.80;9.20;;;;;;;9.50;98.28;98008.55;105528;1281;22449;-82
2022/10/07 03:58:58;;;;;;;14.10;8.80;;;;;;;9.34;97.95;98006.49;105465;1296;22833;-82
2022/10/07 04:01:32;;;;;;;18.40;10.40;;;;;;;9.25;98.67;98002.45;105527;1303;22449;-82
2022/10/07 04:04:03;;;;;;;13.60;8.70;;;;;;;9.23;99.26;98001.47;105557;1295;22470;-82
2022/10/07 04:06:34;;;;;;;12.10;8.80;;;;;;;9.21;99.62;98001.06;105486;1303;25259;-82
2022/10/07 04:09:06;;;;;;;10.70;8.00;;;;;;;9.25;100.00;98000.13;105441;1282;22526;-82
2022/10/07 04:11:39;;;;;;;13.60;9.30;;;;;;;9.30;100.00;97997.15;105380;1298;22488;-83
2022/10/07 04:14:20;;;;;;;9.40;7.80;;;;;;;9.33;100.00;97993.71;105385;1297;23773;-82
2022/10/07 04:16:51;;;;;;;8.70;6.40;;;;;;;9.35;100.00;97993.33;105347;1306;25372;-82
2022/10/07 04:19:25;;;;;;;8.70;6.60;;;;;;;9.36;99.84;97990.13;105294;1287;22516;-82
2022/10/07 04:21:56;;;;;;;9.60;7.00;;;;;;;9.35;99.22;97990.11;105290;1298;22521;-82
2022/10/07 04:24:27;;;;;;;10.60;7.00;;;;;;;9.35;98.81;97989.46;105348;1297;22531;-82
2022/10/07 04:26:58;;;;;;;8.10;6.30;;;;;;;9.29;98.24;97989.88;105346;1298;24946;-82
2022/10/07 04:29:30;;;;;;;10.90;6.70;;;;;;;9.22;98.08;97986.68;105321;1304;22471;-82
2022/10/07 04:32:01;;;;;;;8.10;6.10;;;;;;;9.19;98.26;97981.92;105349;1306;22732;-82
2022/10/07 04:34:34;;;;;;;9.90;7.00;;;;;;;9.08;98.29;97982.16;105345;1306;24232;-82
2022/10/07 04:37:05;;;;;;;9.20;7.00;;;;;;;8.97;98.62;97982.58;105346;1306;23810;-82
2022/10/07 04:39:36;;;;;;;10.30;6.70;;;;;;;8.93;99.30;97979.98;105287;1306;24246;-81
2022/10/07 04:43:17;;;;;;;10.10;6.40;;;;;;;8.91;99.61;97982.74;105351;1300;22611;-82
2022/10/07 04:44:58;;;;;;;10.00;7.20;;;;;;;8.93;99.91;97979.98;105350;1284;22487;-82
2022/10/07 04:47:30;;;;;;;9.50;7.00;;;;;;;8.92;99.96;97983.29;105335;1305;23581;-82
2022/10/07 04:50:02;;;;;;;10.10;7.60;;;;;;;8.92;99.98;97983.17;105311;1306;24740;-81
2022/10/07 04:52:33;;;;;;;10.50;7.80;;;;;;;8.97;100.00;97981.84;105299;1306;22433;-82
2022/10/07 04:55:05;;;;;;;10.10;7.20;;;;;;;9.04;100.00;97979.50;105325;1306;23073;-82
2022/10/07 04:57:38;;;;;;;11.40;7.90;;;;;;;9.10;100.00;97978.20;105314;1288;22477;-82
2022/10/07 05:00:13;;;;;;;11.40;8.50;;;;;;;9.10;99.95;97981.84;105356;1304;26484;-82
2022/10/07 05:02:49;;;;;;;12.60;8.30;;;;;;;9.03;99.71;97975.89;105398;1306;22469;-82
2022/10/07 05:05:20;;;;;;;11.40;8.40;;;;;;;9.05;99.92;97977.26;105410;1306;22490;-82
2022/10/07 05:07:53;;;;;;;9.30;7.60;;;;;;;9.08;99.99;97976.78;105395;1306;25911;-82
2022/10/07 05:10:25;;;;;;;11.30;7.60;;;;;;;9.18;99.96;97979.89;105336;1281;24243;-82
2022/10/07 05:12:56;;;;;;;11.70;7.30;;;;;;;9.34;99.85;97980.88;105399;1306;22516;-82
2022/10/07 05:15:28;;;;;;;10.10;9.10;;;;;;;9.49;99.53;97975.70;105387;1288;22532;-82
2022/10/07 05:17:59;;;;;;;11.10;8.70;;;;;;;9.59;99.56;97972.96;105426;1303;22473;-81
2022/10/07 05:20:31;;;;;;;13.50;9.30;;;;;;;9.80;99.99;97971.05;105467;1289;25367;-82
2022/10/07 05:23:02;;;;;;;8.50;6.90;;;;;;;10.08;100.00;97971.93;105470;1303;22653;-82
2022/10/07 05:25:33;;;;;;;8.40;6.50;;;;;;;10.34;99.45;97969.39;105507;1288;24231;-82
2022/10/07 05:28:05;;;;;;;11.00;7.70;;;;;;;10.55;98.73;97970.38;105500;1282;25385;-81
2022/10/07 05:30:36;;;;;;;8.30;6.60;;;;;;;11.03;99.32;97970.46;105446;1303;27363;-82
2022/10/07 05:33:08;;;;;;;8.70;6.40;;;;;;;11.71;99.16;97971.83;105514;1282;22477;-82
2022/10/07 05:35:45;;;;;;;7.30;5.90;;;;;;;12.28;97.82;97967.69;105489;1288;22918;-82
2022/10/07 05:38:17;;;;;;;7.30;5.90;;;;;;;12.90;96.35;97965.23;105477;1303;22432;-82
2022/10/07 05:40:55;;;;;;;11.40;6.70;;;;;;;13.15;93.09;97964.95;105481;1303;22481;-82
2022/10/07 05:43:26;;;;;;;8.30;6.80;;;;;;;13.15;91.57;97961.30;105478;1303;22473;-82
2022/10/07 05:46:03;;;;;;;10.30;7.30;;;;;;;13.32;91.23;97966.48;105501;1297;22485;-82
2022/10/07 05:48:36;;;;;;;8.10;7.10;;;;;;;13.68;91.21;97966.35;105396;1297;22666;-82
2022/10/07 05:51:08;;;;;;;9.00;6.30;;;;;;;14.22;91.55;97962.62;105525;1291;22724;-82
2022/10/07 05:53:40;;;;;;;7.40;5.90;;;;;;;15.13;91.72;97965.77;105504;1295;22514;-83
2022/10/07 05:56:14;;;;;;;9.40;6.60;;;;;;;15.78;89.04;97972.93;105473;1288;22490;-83
2022/10/07 05:58:45;;;;;;;9.00;7.10;;;;;;;15.89;86.82;97973.96;105441;1303;25041;-82
2022/10/07 06:01:19;;;;;;;7.90;7.00;;;;;;;16.12;86.28;97970.21;105474;1298;25369;-83
2022/10/07 06:03:56;;;;;;;9.50;7.10;;;;;;;16.53;85.83;97971.72;105513;1303;23706;-82
2022/10/07 06:06:28;;;;;;;8.60;7.20;;;;;;;17.26;85.96;97961.96;105513;1296;24228;-83
2022/10/07 06:13:06;;;;;;;7.60;6.30;;;;;;;18.13;84.94;97962.30;105447;1289;22517;-82
2022/10/07 06:14:40;;;;;;;7.90;7.00;;;;;;;19.56;79.14;97961.94;105470;1303;22590;-82
2022/10/07 06:17:11;;;;;;;8.50;6.20;;;;;;;19.64;78.83;97965.73;105524;1303;24240;-82
2022/10/07 06:19:43;;;;;;;8.10;6.20;;;;;;;20.32;78.48;97966.38;105456;1303;22507;-82
2022/10/07 06:22:14;;;;;;;9.80;6.20;;;;;;;20.66;75.96;97969.45;105509;1303;22635;-83
2022/10/07 06:24:45;;;;;;;6.90;6.20;;;;;;;21.12;75.63;97964.98;105521;1303;22546;-82
2022/10/07 06:27:16;;;;;;;12.60;8.20;;;;;;;21.63;73.77;97961.69;105522;1291;22704;-83
2022/10/07 06:29:47;;;;;;;9.80;8.30;;;;;;;21.86;71.77;97961.15;105466;1303;24610;-82
2022/10/07 06:32:19;;;;;;;12.40;9.00;;;;;;;22.24;71.04;97965.38;105491;1278;22478;-83
2022/10/07 06:34:50;;;;;;;11.30;7.80;;;;;;;22.95;70.30;97961.88;105478;1289;22573;-83
2022/10/07 06:37:21;;;;;;;9.70;6.70;;;;;;;23.64;68.82;97961.15;105523;1303;23821;-82
2022/10/07 06:39:52;;;;;;;7.30;6.50;;;;;;;24.30;67.05;97963.54;105469;1295;22524;-82
2022/10/07 06:42:24;;;;;;;7.10;5.90;;;;;;;24.34;63.46;97963.76;105537;1285;22519;-83
2022/10/07 06:44:55;;;;;;;7.80;6.40;;;;;;;24.19;62.43;97955.45;105489;1297;22484;-82
2022/10/07 06:47:26;;;;;;;6.80;6.10;;;;;;;24.20;61.72;97954.91;105481;1288;22554;-83
2022/10/07 06:49:58;;;;;;;7.10;6.10;;;;;;;24.32;60.99;97954.02;105447;1303;22479;-82
2022/10/07 06:52:29;;;;;;;8.80;5.90;;;;;;;24.70;60.55;97953.75;105532;1303;22518;-82
2022/10/07 06:55:00;;;;;;;6.30;5.50;;;;;;;25.21;59.72;97951.81;105494;1301;22547;-82
2022/10/07 06:57:31;;;;;;;6.50;5.40;;;;;;;25.78;58.70;97947.35;105437;1288;22561;-82
2022/10/07 07:00:05;;;;;;;8.50;5.70;;;;;;;25.96;57.24;97946.84;105392;1303;38127;-82
2022/10/07 07:02:36;;;;;;;9.90;6.00;;;;;;;26.13;55.88;97946.67;105439;1304;24334;-83
2022/10/07 07:05:13;;;;;;;7.30;5.60;;;;;;;26.20;54.89;97944.40;105434;1296;25447;-83
2022/10/07 07:07:44;;;;;;;6.50;5.10;;;;;;;26.42;54.67;97943.20;105415;1282;22439;-82
2022/10/07 07:10:15;;;;;;;7.40;5.20;;;;;;;26.97;54.37;97943.48;105419;1295;34603;-82
2022/10/07 07:12:46;;;;;;;9.20;4.80;;;;;;;27.78;53.59;97941.58;105527;1303;22454;-83
2022/10/07 07:15:24;;;;;;;5.10;4.60;;;;;;;28.23;51.42;97940.66;105500;1298;24333;-83
2022/10/07 07:17:56;;;;;;;;;;;;;;;27.80;49.64;97938.67;105499;1303;22513;-82
2022/10/07 07:20:33;;;;;;;6.00;4.40;;;;;;;27.70;49.80;97940.80;105436;1301;22524;-83
2022/10/07 07:23:06;;;;;;;4.80;4.40;;;;;;;27.78;49.02;97938.17;105506;1296;24366;-83
2022/10/07 07:25:39;;;;;;;5.70;4.80;;;;;;;28.13;48.96;97935.58;105515;1289;22477;-83
2022/10/07 07:28:10;;;;;;;5.20;4.60;;;;;;;28.34;47.59;97936.69;105480;1303;25349;-83
2022/10/07 07:30:43;;;;;;;5.60;5.00;;;;;;;28.32;46.80;97934.08;105451;1302;22546;-83
2022/10/07 07:33:14;;;;;;;5.00;4.50;;;;;;;28.41;46.09;97935.33;105477;1285;22456;-83
2022/10/07 07:35:45;;;;;;;5.70;5.20;;;;;;;28.38;44.97;97930.27;105516;1295;23434;-83
2022/10/07 07:38:17;;;;;;;5.50;4.90;;;;;;;28.13;45.66;97929.33;105502;1303;22471;-83
2022/10/07 07:40:48;;;;;;;5.70;5.20;;;;;;;28.49;45.43;97928.21;105463;1297;22485;-84
2022/10/07 07:43:19;;;;;;;5.40;4.90;;;;;;;28.69;44.27;97930.66;105536;1297;22423;-83
2022/10/07 07:45:54;;;;;;;5.50;5.00;;;;;;;28.54;43.54;97927.83;105515;1295;22504;-84
2022/10/07 07:48:25;;;;;;;5.50;5.00;;;;;;;28.34;44.05;97929.21;105428;1289;22488;-83
2022/10/07 07:50:56;;;;;;;5.90;5.20;;;;;;;28.59;43.70;97923.96;105508;1303;22503;-84
2022/10/07 07:53:27;;;;;;;5.80;5.30;;;;;;;28.78;43.27;97925.42;105510;1301;22537;-84
2022/10/07 07:56:01;;;;;;;5.90;5.30;;;;;;;28.31;42.64;97916.35;105485;1284;22551;-82
2022/10/07 07:58:32;;;;;;;7.40;6.20;;;;;;;27.57;42.16;97914.20;105476;1298;27158;-81
2022/10/07 08:01:06;;;;;;;5.30;4.80;;;;;;;26.80;43.29;97909.95;105458;1282;23242;-82
2022/10/07 08:03:37;;;;;;;5.40;4.70;;;;;;;27.14;44.36;97912.38;105520;1287;22538;-81
2022/10/07 08:06:10;;;;;;;6.10;4.90;;;;;;;27.90;43.69;97907.62;105551;1282;24836;-82
2022/10/07 08:08:42;;;;;;;6.20;5.10;;;;;;;27.60;42.01;97909.27;105456;1303;22484;-81
2022/10/07 08:11:15;;;;;;;5.70;5.10;;;;;;;26.35;42.31;97912.48;105446;1303;22754;-83
2022/10/07 08:13:47;;;;;;;5.50;4.90;;;;;;;25.58;43.47;97909.35;105499;1303;22553;-84
2022/10/07 08:16:20;;;;;;;6.50;5.10;;;;;;;24.95;44.28;97918.98;105536;1303;22464;-84
2022/10/07 08:18:53;;;;;;;5.50;5.00;;;;;;;25.15;45.44;97917.38;105449;1291;28725;-84
2022/10/07 08:21:29;;;;;;;7.00;5.40;;;;;;;25.84;45.38;97913.35;105467;1280;22481;-84
2022/10/07 08:24:02;;;;;;;5.60;5.00;;;;;;;26.32;45.29;97907.75;105548;1295;22893;-84
2022/10/07 08:26:36;;;;;;;6.60;4.90;;;;;;;26.59;44.10;97907.36;105504;1303;24478;-84
2022/10/07 08:29:07;;;;;;;6.20;5.50;;;;;;;26.47;44.02;97902.85;105441;1303;33914;-83
2022/10/07 08:31:38;;;;;;;5.90;5.30;;;;;;;26.69;45.22;97898.35;105456;1303;22465;-84
2022/10/07 08:34:10;;;;;;;5.90;4.80;;;;;;;26.83;44.78;97894.09;105492;1288;23941;-84
2022/10/07 08:36:45;;;;;;;6.20;5.50;;;;;;;26.30;43.90;97891.60;105513;1280;25466;-84
2022/10/07 08:39:18;;;;;;;5.30;4.80;;;;;;;25.91;45.30;97893.52;105435;1289;23486;-84
2022/10/07 08:42:12;;;;;;;6.20;5.50;;;;;;;25.59;45.02;97887.34;105454;1303;22525;-84
2022/10/07 08:44:46;;;;;;;6.40;5.40;;;;;;;24.54;45.28;97891.63;105511;1292;24919;-84
2022/10/07 08:47:29;;;;;;;6.80;6.10;;;;;;;23.72;47.32;97887.20;105468;1303;22481;-84
2022/10/07 08:50:06;;;;;;;6.90;5.80;;;;;;;23.19;47.53;97882.58;105441;1298;22503;-84
2022/10/07 08:52:47;;;;;;;6.50;5.60;;;;;;;22.44;48.46;97882.15;105527;1276;22449;-84
2022/10/07 08:55:24;;;;;;;6.80;5.70;;;;;;;21.93;49.41;97883.26;105494;1288;23782;-84
2022/10/07 08:58:21;;;;;;;7.20;6.00;;;;;;;21.41;50.77;97882.41;105469;1281;24231;-84
2022/10/07 09:00:59;;;;;;;6.40;5.70;;;;;;;21.00;51.51;97883.31;105500;1303;35963;-84
2022/10/07 09:03:43;;;;;;;6.80;5.90;;;;;;;20.61;52.55;97878.08;105519;1288;22493;-84
2022/10/07 09:06:20;;;;;;;6.60;5.30;;;;;;;20.41;53.86;97879.35;105512;1303;23957;-85
2022/10/07 09:09:01;;;;;;;8.20;6.30;;;;;;;20.54;54.36;97871.28;105462;1284;22464;-84
2022/10/07 09:11:34;;;;;;;7.80;5.80;;;;;;;20.75;54.41;97864.96;105485;1303;25359;-84
2022/10/07 09:14:20;;;;;;;7.30;6.10;;;;;;;20.70;53.93;97862.90;105527;1303;23713;-85
2022/10/07 09:16:56;;;;;;;7.70;6.00;;;;;;;20.54;54.58;97863.34;105477;1298;24264;-84
2022/10/07 09:19:33;;;;;;;6.70;5.60;;;;;;;20.58;54.81;97862.30;105447;1303;33171;-85
2022/10/07 09:22:11;;;;;;;8.80;5.80;;;;;;;20.48;54.48;97857.27;105532;1298;22510;-85
2022/10/07 09:24:43;;;;;;;6.70;5.90;;;;;;;20.14;55.59;97855.14;105500;1279;22490;-84
2022/10/07 09:27:18;;;;;;;8.00;6.30;;;;;;;20.14;56.25;97849.86;105542;1277;22479;-84
2022/10/07 09:29:50;;;;;;;7.40;6.40;;;;;;;20.18;56.66;97846.89;105448;1294;24960;-84
2022/10/07 09:32:22;;;;;;;7.00;6.30;;;;;;;20.24;56.66;97845.45;105467;1295;22458;-84
2022/10/07 09:34:52;;;;;;;6.50;5.80;;;;;;;20.21;56.95;97845.15;105510;1282;22417;-84
2022/10/07 09:37:25;;;;;;;6.90;6.20;;;;;;;20.17;56.82;97835.95;105496;1289;22448;-84
2022/10/07 09:40:17;;;;;;;7.80;6.30;;;;;;;20.00;57.14;97833.13;105438;1291;22517;-84
2022/10/07 09:42:48;;;;;;;7.30;6.00;;;;;;;20.03;57.31;97826.40;105490;1295;22503;-84
2022/10/07 09:45:30;;;;;;;8.80;6.50;;;;;;;20.13;57.84;97822.86;105547;1303;22509;-84
2022/10/07 09:48:06;;;;;;;9.40;6.50;;;;;;;20.13;58.29;97822.15;105483;1294;22467;-84
2022/10/07 09:50:39;;;;;;;9.40;6.00;;;;;;;20.25;58.25;97822.14;105463;1303;25857;-84
2022/10/07 09:53:20;;;;;;;7.90;6.60;;;;;;;20.26;57.92;97819.96;105465;1303;22411;-84
2022/10/07 09:55:54;;;;;;;8.00;7.00;;;;;;;20.17;58.19;97819.58;105504;1297;22494;-84
2022/10/07 09:58:29;;;;;;;8.00;6.80;;;;;;;20.19;58.16;97819.36;105414;1288;22555;-84
2022/10/07 10:01:10;;;;;;;8.90;6.80;;;;;;;20.27;58.58;97813.42;105509;1303;22444;-84
2022/10/07 10:03:42;;;;;;;8.30;6.50;;;;;;;20.45;58.64;97812.78;105488;1303;22495;-84
2022/10/07 10:06:13;;;;;;;11.20;6.80;;;;;;;20.33;58.55;97810.08;105470;1282;22463;-85
2022/10/07 10:08:45;;;;;;;7.00;6.30;;;;;;;20.37;58.41;97803.29;105393;1289;24439;-84
2022/10/07 10:11:28;;;;;;;7.00;5.50;;;;;;;20.32;58.11;97799.88;105384;1305;22473;-85
2022/10/07 10:14:41;;;;;;;7.50;6.50;;;;;;;20.15;58.42;97803.73;105386;1303;22475;-85
2022/10/07 10:17:23;;;;;;;7.00;5.80;;;;;;;20.16;58.72;97797.62;105374;1294;24257;-84
2022/10/07 10:19:55;;;;;;;7.50;6.10;;;;;;;20.14;58.56;97796.61;105410;1303;24515;-84
2022/10/07 10:22:29;;;;;;;7.90;5.70;;;;;;;20.25;58.58;97788.17;105515;1303;22479;-84
2022/10/07 10:27:57;;;;;;;7.20;5.30;;;;;;;20.51;58.78;97781.63;105539;1303;22656;-84
2022/10/07 10:30:30;;;;;;;5.80;4.90;;;;;;;20.66;58.30;97776.13;105482;1303;24677;-85
2022/10/07 10:33:17;;;;;;;6.80;5.70;;;;;;;20.80;57.95;97775.23;105516;1284;22402;-85
2022/10/07 10:35:59;;;;;;;7.10;5.50;;;;;;;20.73;57.60;97770.92;105529;1283;22496;-85
2022/10/07 10:38:39;;;;;;;7.20;5.50;;;;;;;20.63;58.10;97768.25;105462;1278;23683;-84
2022/10/07 10:41:24;;;;;;;6.50;5.80;;;;;;;20.69;58.12;97765.37;105417;1306;22524;-85
2022/10/07 10:44:19;;;;;;;9.40;5.70;;;;;;;20.70;57.88;97762.42;105455;1305;25243;-85
2022/10/07 10:46:59;;;;;;;11.70;6.00;;;;;;;20.70;58.27;97758.71;105493;1288;22468;-85
2022/10/07 10:49:38;;;;;;;6.60;5.30;;;;;;;20.82;58.40;97751.17;105453;1288;24227;-86
2022/10/07 10:52:34;;;;;;;6.90;5.50;;;;;;;20.89;58.10;97746.84;105525;1296;23791;-85
2022/10/07 10:55:33;;;;;;;7.90;5.60;;;;;;;20.77;57.38;97745.84;105480;1282;23336;-84
2022/10/07 10:58:17;;;;;;;7.20;5.10;;;;;;;20.43;57.26;97743.44;105299;1304;22447;-85
2022/10/07 11:00:59;;;;;;;6.50;5.00;;;;;;;20.11;57.59;97737.20;105446;1282;24954;-85
2022/10/07 11:03:39;;;;;;;6.70;5.10;;;;;;;19.99;57.90;97734.19;105498;1298;24366;-85
2022/10/07 11:06:15;;;;;;;8.50;5.50;;;;;;;20.05;58.44;97730.56;105490;1298;22454;-85
2022/10/07 11:08:50;;;;;;;7.20;4.80;;;;;;;20.34;58.66;97723.23;105440;1300;30857;-84
2022/10/07 11:11:23;;;;;;;6.00;4.80;;;;;;;20.53;58.62;97722.05;105496;1294;22475;-85
2022/10/07 11:14:00;;;;;;;6.90;4.90;;;;;;;20.62;58.06;97725.06;105475;1289;22490;-85
2022/10/07 11:16:37;;;;;;;5.30;4.80;;;;;;;20.66;57.94;97716.88;105491;1299;23791;-85
2022/10/07 11:19:15;;;;;;;5.70;5.10;;;;;;;20.42;57.20;97709.16;105477;1282;24254;-85
2022/10/07 11:21:49;;;;;;;6.30;4.70;;;;;;;20.02;57.27;97703.48;105485;1296;22918;-85
2022/10/07 11:24:26;;;;;;;6.10;5.00;;;;;;;19.74;57.82;97703.27;105530;1303;23030;-85
2022/10/07 11:27:08;;;;;;;6.90;5.10;;;;;;;19.58;58.62;97700.75;105526;1301;22494;-85
2022/10/07 11:29:48;;;;;;;6.30;4.90;;;;;;;19.48;58.86;97697.73;105432;1303;22601;-85
2022/10/07 11:32:24;;;;;;;6.10;5.40;;;;;;;19.43;58.88;97695.89;105502;1281;24388;-85
2022/10/07 11:35:01;;;;;;;5.20;4.70;;;;;;;19.44;59.03;97689.39;105487;1295;22536;-85
2022/10/07 11:37:43;;;;;;;6.00;4.80;;;;;;;19.56;59.47;97684.96;105531;1294;22679;-84
2022/10/07 11:40:15;;;;;;;5.50;4.10;;;;;;;19.57;58.85;97681.25;105515;1303;22486;-85
2022/10/07 11:42:51;;;;;;;5.00;3.90;;;;;;;19.59;58.80;97675.64;105535;1303;22468;-84
2022/10/07 11:45:27;;;;;;;4.00;3.60;;;;;;;19.82;58.80;97671.17;105565;1300;22484;-84
2022/10/07 11:48:04;;;;;;;5.90;3.60;;;;;;;19.98;58.26;97669.67;105524;1285;23331;-84
2022/10/07 11:50:41;;;;;;;6.10;4.60;;;;;;;20.02;58.33;97666.20;105366;1306;23016;-84
2022/10/07 11:53:19;;;;;;;7.20;4.60;;;;;;;19.97;58.17;97662.48;105408;1288;22467;-84
2022/10/07 11:55:58;;;;;;;6.80;5.30;;;;;;;20.08;58.54;97658.16;105425;1288;24074;-84
2022/10/07 11:58:32;;;;;;;7.20;3.50;;;;;;;20.11;57.92;97653.14;105420;1298;22987;-82
2022/10/07 12:01:50;;;;;;;4.40;3.20;;;;;;;19.94;57.30;97650.56;105467;1305;22471;-84
2022/10/07 12:04:38;;;;;;;3.90;2.80;;;;;;;19.86;57.61;97647.23;105525;1287;23655;-84